西安 の空港の天気 - METARとTAF

西安咸陽国際空港 ( ZLXY / XIY ) - 中華人民共和国 陝西省西安市
飛行場実況気象(Metar)
観測時間07/28 20:00 CST (07/28 12:00 UTC)
風向・風速東北東 5m/s
視程6000m
天気現象
全天の4割程度の雲 雲底高度 1520m
全天の8割程度の雲 雲底高度 1520m
気温23℃
湿度94%
気圧1012hPa
METARZLXY 281200Z 06005MPS 6000 SCT050CB BKN050 23/22 Q1012 BECMG SHRA
過去の天気等 Google飛行場航空写真 Wunderground天気予報

過去48時間のMETAR

飛行場予報(TAF)
発表時間: 7/28 17:18 CST (7/28 09:18 UTC)
予報対象時間: 28日20時 CST ~ 29日20時 CST
風向・風速東北東 4m/s
視程6,000m
全天を覆う雲 雲底高度 1,520m
28日23時 CST ~ 29日5時 CST に一時的に
天気現象しゅう雨
少しの積乱雲 雲底高度 1,220m
TAF ZLXY 280918Z 2812/2912 06004MPS 6000 OVC050 TX27/2908Z TN21/2821Z
TEMPO 2815/2821 SHRA FEW040CB